createdAt,value
2017-09-27T00:01:46.278Z,92.70
2017-09-27T00:03:47.243Z,92.70
2017-09-27T00:05:48.197Z,92.80
2017-09-27T00:07:49.170Z,92.80
2017-09-27T00:09:50.129Z,92.80
2017-09-27T00:11:51.078Z,92.70
2017-09-27T00:13:52.033Z,92.80
2017-09-27T00:15:52.997Z,92.80
2017-09-27T00:18:01.036Z,92.80
2017-09-27T00:20:01.980Z,92.70
2017-09-27T00:22:02.928Z,92.80
2017-09-27T00:24:03.887Z,92.80
2017-09-27T00:26:05.579Z,92.70
2017-09-27T00:28:06.528Z,92.70
2017-09-27T00:30:07.474Z,92.90
2017-09-27T00:32:08.422Z,92.90
2017-09-27T00:34:09.387Z,93.00
2017-09-27T00:36:10.344Z,93.00
2017-09-27T00:38:11.289Z,92.90
2017-09-27T00:40:12.246Z,93.00
2017-09-27T00:42:13.194Z,93.00
2017-09-27T00:44:14.160Z,93.00
2017-09-27T00:46:22.853Z,92.80
2017-09-27T00:48:23.804Z,92.70
2017-09-27T00:50:24.785Z,92.90
2017-09-27T00:52:26.480Z,92.90
2017-09-27T00:54:27.436Z,92.90
2017-09-27T00:56:28.427Z,92.90
2017-09-27T00:58:30.126Z,92.80
2017-09-27T01:00:31.080Z,92.70
2017-09-27T01:02:32.047Z,92.80
2017-09-27T01:04:33.005Z,92.80
2017-09-27T01:06:33.954Z,92.80
2017-09-27T01:08:34.905Z,92.70
2017-09-27T01:10:35.868Z,92.80
2017-09-27T01:12:37.580Z,92.80
2017-09-27T01:14:38.556Z,92.80
2017-09-27T01:16:39.508Z,92.80
2017-09-27T01:18:40.459Z,92.80
2017-09-27T01:20:41.423Z,92.80
2017-09-27T01:22:43.112Z,92.90
2017-09-27T01:24:44.083Z,92.90
2017-09-27T01:26:45.037Z,92.90
2017-09-27T01:28:45.989Z,92.70
2017-09-27T01:30:46.973Z,92.70
2017-09-27T01:32:48.685Z,92.80
2017-09-27T01:34:49.660Z,92.80
2017-09-27T01:36:50.617Z,92.80
2017-09-27T01:38:52.302Z,92.70
2017-09-27T01:40:53.273Z,92.70
2017-09-27T01:42:54.257Z,92.70
2017-09-27T01:44:55.217Z,92.70
2017-09-27T01:46:56.941Z,93.00
2017-09-27T01:48:57.890Z,92.90
2017-09-27T01:50:58.858Z,92.90
2017-09-27T01:52:59.825Z,92.90
2017-09-27T01:55:01.529Z,92.90
2017-09-27T01:57:02.509Z,92.80
2017-09-27T01:59:03.466Z,92.70
2017-09-27T02:01:04.432Z,92.70
2017-09-27T02:03:06.140Z,92.70
2017-09-27T02:05:07.097Z,92.70
2017-09-27T02:07:08.055Z,92.70
2017-09-27T02:09:09.009Z,92.30
2017-09-27T02:11:09.965Z,92.70
2017-09-27T02:13:11.665Z,92.70
2017-09-27T02:15:12.617Z,92.70
2017-09-27T02:17:13.570Z,92.50
2017-09-27T02:19:14.512Z,92.70
2017-09-27T02:21:15.456Z,92.30
2017-09-27T02:23:16.445Z,92.40
2017-09-27T02:25:17.395Z,92.10
2017-09-27T02:27:18.345Z,92.00
2017-09-27T02:29:19.299Z,92.10
2017-09-27T02:31:20.992Z,91.90
2017-09-27T02:33:21.945Z,91.90
2017-09-27T02:35:22.897Z,91.70
2017-09-27T02:37:23.929Z,92.10
2017-09-27T02:39:24.884Z,92.10
2017-09-27T02:41:25.825Z,92.30
2017-09-27T02:43:26.788Z,92.30
2017-09-27T02:45:27.744Z,92.30
2017-09-27T02:47:28.717Z,92.30
2017-09-27T02:49:29.665Z,92.40
2017-09-27T02:51:30.613Z,92.60
2017-09-27T02:53:32.317Z,91.80
2017-09-27T02:55:33.268Z,91.80
2017-09-27T02:57:34.228Z,91.70
2017-09-27T02:59:35.205Z,92.00
2017-09-27T03:01:36.157Z,92.30
2017-09-27T03:03:37.114Z,92.10
2017-09-27T03:05:38.807Z,92.20
2017-09-27T03:07:39.766Z,92.30
2017-09-27T03:09:40.724Z,91.90
2017-09-27T03:11:41.677Z,91.40
2017-09-27T03:13:42.637Z,91.70
2017-09-27T03:15:43.593Z,92.00
2017-09-27T03:17:44.558Z,92.00
2017-09-27T03:19:46.256Z,92.40
2017-09-27T03:21:47.206Z,92.40
2017-09-27T03:23:48.158Z,92.10
2017-09-27T03:25:49.105Z,91.80
2017-09-27T03:27:50.078Z,92.10
2017-09-27T03:29:51.039Z,92.20
2017-09-27T03:31:52.741Z,91.80
2017-09-27T03:33:53.696Z,91.80
2017-09-27T03:36:01.519Z,91.80
2017-09-27T03:38:03.250Z,92.00
2017-09-27T03:40:04.926Z,92.00
2017-09-27T03:42:05.877Z,92.10
2017-09-27T03:44:06.838Z,91.90
2017-09-27T03:46:07.792Z,92.30
2017-09-27T03:48:08.749Z,92.00
2017-09-27T03:50:09.713Z,92.10
2017-09-27T03:52:11.398Z,92.20
2017-09-27T03:54:12.358Z,92.20
2017-09-27T03:56:13.314Z,92.60
2017-09-27T03:58:14.265Z,92.50
2017-09-27T04:00:15.257Z,92.40
2017-09-27T04:02:16.940Z,92.30
2017-09-27T04:04:17.921Z,92.30
2017-09-27T04:06:18.877Z,92.60
2017-09-27T04:08:19.829Z,92.60
2017-09-27T04:10:20.788Z,92.50
2017-09-27T04:12:21.736Z,92.20
2017-09-27T04:14:22.688Z,92.00
2017-09-27T04:16:23.641Z,91.20
2017-09-27T04:18:25.353Z,91.40
2017-09-27T04:20:26.297Z,91.40
2017-09-27T04:22:27.298Z,91.00
2017-09-27T04:24:29.066Z,91.30
2017-09-27T04:26:30.765Z,90.90
2017-09-27T04:28:31.719Z,90.90
2017-09-27T04:30:32.673Z,91.10
2017-09-27T04:32:33.620Z,90.70
2017-09-27T04:34:34.573Z,90.90
2017-09-27T04:36:35.529Z,91.00
2017-09-27T04:38:36.481Z,91.40
2017-09-27T04:40:37.444Z,91.30
2017-09-27T04:42:39.137Z,91.60
2017-09-27T04:44:40.094Z,91.50
2017-09-27T04:46:41.053Z,91.80
2017-09-27T04:48:42.060Z,92.00
2017-09-27T04:50:43.022Z,91.70
2017-09-27T04:52:43.973Z,91.60
2017-09-27T04:54:44.924Z,91.70
2017-09-27T04:56:45.869Z,91.40
2017-09-27T04:58:46.814Z,91.50
2017-09-27T05:00:47.765Z,91.20
2017-09-27T05:02:48.725Z,91.30
2017-09-27T05:04:49.677Z,91.40
2017-09-27T05:06:50.624Z,91.50
2017-09-27T05:08:51.575Z,91.60
2017-09-27T05:10:52.536Z,91.30
2017-09-27T05:12:53.485Z,91.50
2017-09-27T05:14:54.429Z,91.80
2017-09-27T05:16:56.134Z,91.90
2017-09-27T05:18:57.084Z,91.90
2017-09-27T05:20:58.036Z,91.80
2017-09-27T05:22:58.998Z,91.90
2017-09-27T05:24:59.937Z,92.00
2017-09-27T05:27:00.893Z,91.70
2017-09-27T05:29:01.850Z,92.20
2017-09-27T05:31:02.792Z,92.10
2017-09-27T05:33:03.741Z,91.70
2017-09-27T05:35:04.685Z,92.10
2017-09-27T05:37:05.641Z,91.80
2017-09-27T05:39:06.593Z,91.90
2017-09-27T05:41:07.557Z,91.90
2017-09-27T05:43:09.257Z,91.80
2017-09-27T05:45:10.196Z,91.80
2017-09-27T05:47:11.160Z,91.50
2017-09-27T05:49:12.118Z,91.80
2017-09-27T05:51:13.095Z,91.80
2017-09-27T05:53:14.781Z,91.80
2017-09-27T05:55:15.741Z,91.40
2017-09-27T05:57:16.712Z,91.00
2017-09-27T05:59:17.676Z,90.70
2017-09-27T06:01:18.625Z,91.40
2017-09-27T06:03:19.576Z,90.90
2017-09-27T06:05:20.525Z,90.60
2017-09-27T06:07:21.484Z,91.20
2017-09-27T06:09:23.177Z,91.20
2017-09-27T06:11:24.130Z,91.20
2017-09-27T06:13:25.088Z,91.20
2017-09-27T06:15:26.782Z,91.80
2017-09-27T06:17:27.736Z,91.40
2017-09-27T06:19:28.769Z,91.40
2017-09-27T06:21:29.717Z,91.20
2017-09-27T06:23:30.677Z,90.80
2017-09-27T06:25:32.371Z,90.90
2017-09-27T06:27:33.337Z,90.90
2017-09-27T06:29:34.298Z,90.40
2017-09-27T06:31:35.244Z,91.10
2017-09-27T06:33:36.202Z,90.50
2017-09-27T06:35:37.160Z,89.40
2017-09-27T06:37:38.125Z,90.50
2017-09-27T06:39:39.839Z,90.30
2017-09-27T06:41:40.800Z,90.30
2017-09-27T06:43:41.756Z,89.90
2017-09-27T06:45:42.717Z,89.80
2017-09-27T06:47:43.670Z,88.90
2017-09-27T06:49:45.364Z,90.00
2017-09-27T06:51:46.336Z,90.00
2017-09-27T06:53:47.289Z,88.80
2017-09-27T06:55:48.245Z,89.30
2017-09-27T06:57:49.194Z,89.70
2017-09-27T06:59:50.148Z,88.00
2017-09-27T07:01:51.192Z,89.20
2017-09-27T07:03:52.153Z,88.00
2017-09-27T07:05:53.856Z,89.10
2017-09-27T07:07:54.796Z,89.00
2017-09-27T07:09:55.756Z,88.40
2017-09-27T07:11:56.701Z,90.00
2017-09-27T07:13:57.666Z,90.10
2017-09-27T07:15:58.668Z,89.80
2017-09-27T07:17:59.620Z,89.30
2017-09-27T07:20:00.573Z,90.10
2017-09-27T07:22:01.512Z,89.20
2017-09-27T07:24:02.469Z,88.70
2017-09-27T07:26:03.436Z,88.20
2017-09-27T07:28:04.467Z,89.00
2017-09-27T07:30:05.424Z,90.00
2017-09-27T07:32:06.390Z,89.10
2017-09-27T07:34:07.354Z,88.40
2017-09-27T07:36:08.306Z,87.60
2017-09-27T07:38:09.280Z,89.20
2017-09-27T07:40:10.241Z,88.70
2017-09-27T07:42:11.185Z,89.60
2017-09-27T07:44:12.142Z,89.00
2017-09-27T07:46:13.169Z,90.00
2017-09-27T07:48:14.119Z,90.30
2017-09-27T07:50:15.081Z,90.00
2017-09-27T07:52:16.024Z,88.80
2017-09-27T07:54:16.973Z,89.70
2017-09-27T07:56:18.670Z,90.00
2017-09-27T07:58:19.626Z,90.00
2017-09-27T08:00:21.321Z,90.20
2017-09-27T08:02:22.277Z,90.20
2017-09-27T08:04:23.224Z,89.20
2017-09-27T08:06:24.180Z,90.00
2017-09-27T08:08:25.129Z,89.70
2017-09-27T08:10:26.120Z,88.60
2017-09-27T08:12:27.820Z,87.50
2017-09-27T08:14:28.773Z,87.60
2017-09-27T08:16:29.754Z,88.20
2017-09-27T08:18:30.713Z,89.60
2017-09-27T08:20:31.669Z,88.10
2017-09-27T08:22:33.365Z,87.40
2017-09-27T08:24:34.370Z,87.20
2017-09-27T08:26:35.325Z,88.10
2017-09-27T08:28:37.016Z,87.80
2017-09-27T08:30:37.973Z,87.80
2017-09-27T08:32:38.920Z,87.80
2017-09-27T08:34:39.880Z,88.00
2017-09-27T08:36:40.837Z,90.00
2017-09-27T08:38:41.788Z,88.70
2017-09-27T08:40:42.745Z,88.20
2017-09-27T08:42:43.688Z,87.90
2017-09-27T08:44:44.644Z,88.10
2017-09-27T08:46:45.608Z,87.90
2017-09-27T08:48:47.314Z,88.30
2017-09-27T08:50:48.260Z,88.20
2017-09-27T08:52:49.206Z,88.40
2017-09-27T08:54:50.160Z,87.90
2017-09-27T08:56:51.116Z,87.00
2017-09-27T08:58:52.102Z,87.30
2017-09-27T09:00:53.065Z,88.20
2017-09-27T09:02:54.028Z,87.40
2017-09-27T09:04:54.990Z,87.70
2017-09-27T09:06:55.944Z,87.10
2017-09-27T09:08:56.905Z,87.90
2017-09-27T09:10:57.858Z,88.90
2017-09-27T09:12:58.806Z,87.90
2017-09-27T09:15:00.516Z,87.80
2017-09-27T09:17:01.477Z,87.80
2017-09-27T09:19:02.424Z,87.90
2017-09-27T09:21:03.438Z,88.20
2017-09-27T09:23:04.395Z,89.10
2017-09-27T09:25:05.364Z,89.40
2017-09-27T09:27:06.324Z,88.50
2017-09-27T09:29:07.276Z,88.80
2017-09-27T09:31:08.241Z,89.00
2017-09-27T09:33:09.948Z,88.90
2017-09-27T09:35:10.915Z,89.00
2017-09-27T09:37:11.982Z,89.70
2017-09-27T09:39:12.924Z,89.40
2017-09-27T09:41:13.884Z,89.90
2017-09-27T09:43:15.581Z,90.00
2017-09-27T09:45:16.532Z,90.00
2017-09-27T09:47:17.493Z,90.00
2017-09-27T09:49:18.453Z,89.60
2017-09-27T09:51:19.410Z,89.20
2017-09-27T09:53:20.383Z,89.80
2017-09-27T09:55:21.340Z,88.90
2017-09-27T09:57:23.048Z,89.60
2017-09-27T09:59:24.001Z,89.60
2017-09-27T10:01:25.689Z,88.80
2017-09-27T10:03:26.641Z,88.80
2017-09-27T10:05:28.333Z,89.00
2017-09-27T10:07:29.301Z,89.10
2017-09-27T10:09:30.248Z,89.40
2017-09-27T10:11:31.193Z,89.00
2017-09-27T10:13:32.141Z,88.30
2017-09-27T10:15:33.112Z,88.30
2017-09-27T10:17:34.052Z,87.20
2017-09-27T10:19:35.009Z,88.10
2017-09-27T10:21:35.949Z,87.10
2017-09-27T10:23:36.904Z,87.20
2017-09-27T10:25:37.865Z,87.20
2017-09-27T10:27:39.544Z,86.80
2017-09-27T10:29:40.492Z,86.60
2017-09-27T10:31:41.440Z,87.40
2017-09-27T10:33:42.390Z,88.10
2017-09-27T10:35:43.337Z,88.80
2017-09-27T10:37:44.277Z,88.40
2017-09-27T10:39:45.224Z,86.70
2017-09-27T10:41:46.172Z,88.90
2017-09-27T10:43:47.137Z,88.00
2017-09-27T10:45:48.085Z,88.90
2017-09-27T10:47:49.037Z,88.50
2017-09-27T10:49:50.004Z,87.70
2017-09-27T10:51:50.960Z,88.00
2017-09-27T10:53:51.917Z,89.40
2017-09-27T10:55:53.606Z,88.00
2017-09-27T10:57:54.557Z,87.20
2017-09-27T10:59:55.518Z,89.30
2017-09-27T11:01:56.481Z,88.00
2017-09-27T11:03:57.436Z,87.60
2017-09-27T11:05:58.397Z,89.30
2017-09-27T11:07:59.349Z,86.60
2017-09-27T11:10:01.058Z,88.40
2017-09-27T11:12:02.026Z,88.40
2017-09-27T11:14:02.977Z,87.40
2017-09-27T11:16:03.946Z,89.00
2017-09-27T11:18:04.902Z,88.40
2017-09-27T11:20:06.600Z,87.70
2017-09-27T11:22:07.556Z,87.70
2017-09-27T11:24:08.521Z,87.80
2017-09-27T11:26:09.474Z,88.80
2017-09-27T11:28:10.424Z,88.90
2017-09-27T11:30:11.397Z,89.30
2017-09-27T11:32:13.089Z,89.40
2017-09-27T11:34:14.041Z,89.40
2017-09-27T11:36:14.997Z,88.50
2017-09-27T11:38:15.950Z,88.70
2017-09-27T11:40:16.908Z,89.00
2017-09-27T11:42:17.857Z,89.90
2017-09-27T11:44:18.981Z,89.50
2017-09-27T11:46:19.925Z,89.70
2017-09-27T11:48:20.877Z,90.00
2017-09-27T11:50:21.834Z,87.40
2017-09-27T11:52:22.813Z,88.90
2017-09-27T11:54:23.765Z,86.90
2017-09-27T11:56:25.457Z,87.70
2017-09-27T11:58:26.393Z,86.90
2017-09-27T12:00:27.353Z,85.00
2017-09-27T12:02:28.309Z,86.60
2017-09-27T12:04:29.263Z,86.20
2017-09-27T12:06:30.213Z,84.90
2017-09-27T12:08:31.183Z,85.90
2017-09-27T12:10:32.133Z,86.10
2017-09-27T12:12:33.080Z,84.50
2017-09-27T12:14:34.045Z,83.90
2017-09-27T12:16:36.662Z,86.00
2017-09-27T12:18:38.309Z,85.90
2017-09-27T12:20:39.269Z,86.20
2017-09-27T12:22:40.233Z,85.30
2017-09-27T12:24:41.192Z,86.20
2017-09-27T12:26:42.145Z,86.20
2017-09-27T12:28:43.109Z,84.70
2017-09-27T12:30:44.062Z,85.90
2017-09-27T12:32:45.752Z,84.80
2017-09-27T12:34:46.709Z,84.80
2017-09-27T12:36:47.667Z,86.60
2017-09-27T12:38:48.628Z,84.80
2017-09-27T12:40:49.581Z,86.00
2017-09-27T12:42:50.544Z,84.50
2017-09-27T12:44:51.493Z,85.10
2017-09-27T12:46:52.452Z,85.90
2017-09-27T12:48:54.144Z,85.50
2017-09-27T12:50:55.105Z,85.40
2017-09-27T12:52:56.060Z,86.40
2017-09-27T12:54:57.036Z,84.90
2017-09-27T12:56:57.997Z,84.20
2017-09-27T12:58:59.705Z,85.30
2017-09-27T13:01:00.680Z,85.20
2017-09-27T13:03:01.633Z,85.90
2017-09-27T13:05:02.593Z,84.20
2017-09-27T13:07:04.299Z,84.80
2017-09-27T13:09:05.249Z,84.80
2017-09-27T13:11:06.234Z,85.70
2017-09-27T13:13:07.195Z,85.10
2017-09-27T13:15:08.892Z,84.00
2017-09-27T13:17:09.856Z,83.90
2017-09-27T13:19:10.808Z,84.00
2017-09-27T13:21:12.505Z,83.70
2017-09-27T13:23:13.469Z,83.70
2017-09-27T13:25:15.217Z,84.00
2017-09-27T13:27:16.174Z,84.00
2017-09-27T13:29:17.869Z,84.80
2017-09-27T13:31:18.837Z,84.80
2017-09-27T13:33:19.793Z,83.70
2017-09-27T13:35:20.749Z,84.90
2017-09-27T13:37:21.709Z,84.60
2017-09-27T13:39:22.688Z,85.60
2017-09-27T13:41:23.642Z,85.70
2017-09-27T13:43:24.594Z,82.90
2017-09-27T13:45:25.569Z,85.10
2017-09-27T13:47:26.546Z,85.60
2017-09-27T13:49:28.234Z,85.60
2017-09-27T13:51:29.185Z,85.50
2017-09-27T13:53:30.145Z,86.30
2017-09-27T13:55:31.110Z,85.80
2017-09-27T13:57:32.073Z,84.40
2017-09-27T13:59:33.018Z,85.10
2017-09-27T14:01:33.994Z,85.70
2017-09-27T14:03:35.693Z,84.50
2017-09-27T14:05:36.644Z,84.30
2017-09-27T14:07:37.597Z,85.60
2017-09-27T14:09:38.565Z,82.60
2017-09-27T14:11:39.537Z,82.20
2017-09-27T14:13:41.253Z,79.90
2017-09-27T14:15:42.213Z,79.90
2017-09-27T14:17:43.179Z,81.40
2017-09-27T14:19:44.122Z,81.70
2017-09-27T14:21:45.074Z,82.20
2017-09-27T14:23:46.778Z,79.30
2017-09-27T14:25:47.731Z,79.30
2017-09-27T14:27:48.690Z,80.70
2017-09-27T14:29:49.650Z,79.20
2017-09-27T14:31:50.638Z,81.00
2017-09-27T14:33:52.336Z,82.40
2017-09-27T14:35:53.300Z,82.40
2017-09-27T14:37:54.274Z,82.00
2017-09-27T14:39:55.222Z,81.10
2017-09-27T14:41:57.225Z,82.30
2017-09-27T14:43:58.185Z,80.60
2017-09-27T14:45:59.128Z,81.00
2017-09-27T14:48:00.097Z,81.20
2017-09-27T14:50:01.054Z,80.90
2017-09-27T14:52:02.011Z,81.10
2017-09-27T14:54:02.978Z,79.40
2017-09-27T14:56:04.674Z,77.40
2017-09-27T14:58:05.657Z,77.20
2017-09-27T15:00:06.602Z,76.20
2017-09-27T15:02:07.568Z,76.60
2017-09-27T15:04:09.273Z,76.60
2017-09-27T15:06:10.250Z,76.50
2017-09-27T15:08:11.270Z,72.70
2017-09-27T15:10:12.236Z,73.60
2017-09-27T15:12:13.188Z,75.60
2017-09-27T15:14:14.143Z,73.60
2017-09-27T15:16:15.109Z,74.80
2017-09-27T15:18:16.845Z,76.60
2017-09-27T15:20:17.821Z,76.60
2017-09-27T15:22:19.589Z,76.20
2017-09-27T15:24:21.451Z,76.00
2017-09-27T15:26:23.154Z,77.70
2017-09-27T15:28:24.109Z,78.00
2017-09-27T15:30:25.073Z,76.50
2017-09-27T15:32:26.032Z,77.80
2017-09-27T15:34:26.996Z,78.30
2017-09-27T15:36:27.949Z,78.00
2017-09-27T15:38:29.648Z,78.30
2017-09-27T15:40:30.609Z,78.30
2017-09-27T15:42:31.556Z,80.20
2017-09-27T15:44:32.520Z,79.40
2017-09-27T15:46:33.466Z,79.90
2017-09-27T15:48:34.439Z,80.20
2017-09-27T15:50:36.141Z,81.70
2017-09-27T15:52:37.097Z,81.70
2017-09-27T15:54:38.100Z,81.30
2017-09-27T15:56:39.796Z,82.70
2017-09-27T15:58:40.740Z,82.70
2017-09-27T16:00:41.789Z,82.40
2017-09-27T16:02:42.746Z,82.80
2017-09-27T16:04:43.717Z,83.50
2017-09-27T16:06:44.666Z,82.90
2017-09-27T16:08:45.624Z,84.00
2017-09-27T16:10:46.581Z,85.40
2017-09-27T16:12:48.279Z,85.00
2017-09-27T16:14:49.229Z,85.00
2017-09-27T16:16:50.197Z,85.80
2017-09-27T16:18:51.153Z,85.00
2017-09-27T16:20:52.114Z,85.10
2017-09-27T16:22:53.126Z,85.00
2017-09-27T16:24:54.105Z,85.20
2017-09-27T16:26:55.065Z,85.30
2017-09-27T16:28:56.757Z,85.40
2017-09-27T16:30:57.718Z,85.30
2017-09-27T16:32:58.664Z,85.90
2017-09-27T16:34:59.616Z,85.60
2017-09-27T16:37:00.731Z,85.20
2017-09-27T16:39:01.689Z,87.10
2017-09-27T16:41:02.642Z,85.60
2017-09-27T16:43:03.593Z,85.90
2017-09-27T16:45:04.542Z,86.10
2017-09-27T16:47:05.501Z,86.60
2017-09-27T16:49:06.460Z,86.40
2017-09-27T16:51:07.424Z,86.30
2017-09-27T16:53:08.372Z,87.40
2017-09-27T16:55:09.321Z,87.10
2017-09-27T16:57:10.278Z,87.40
2017-09-27T16:59:11.989Z,87.70
2017-09-27T17:01:12.945Z,87.70
2017-09-27T17:03:14.637Z,87.50
2017-09-27T17:05:15.585Z,87.50
2017-09-27T17:07:17.281Z,88.50
2017-09-27T17:09:18.232Z,88.50
2017-09-27T17:11:19.201Z,89.20
2017-09-27T17:13:20.149Z,88.60
2017-09-27T17:15:21.157Z,88.40
2017-09-27T17:17:22.124Z,88.70
2017-09-27T17:19:23.173Z,89.00
2017-09-27T17:21:24.130Z,89.40
2017-09-27T17:23:25.090Z,89.70
2017-09-27T17:25:26.126Z,90.10
2017-09-27T17:27:27.089Z,90.10
2017-09-27T17:29:28.045Z,90.20
2017-09-27T17:31:29.012Z,90.30
2017-09-27T17:33:30.722Z,90.30
2017-09-27T17:35:31.666Z,90.30
2017-09-27T17:37:32.632Z,90.30
2017-09-27T17:39:33.597Z,90.30
2017-09-27T17:41:34.549Z,90.60
2017-09-27T17:43:35.516Z,90.60
2017-09-27T17:45:36.470Z,90.80
2017-09-27T17:47:37.767Z,90.80
2017-09-27T17:49:38.742Z,90.90
2017-09-27T17:51:39.846Z,90.90
2017-09-27T17:53:40.806Z,91.20
2017-09-27T17:55:41.880Z,91.10
2017-09-27T17:57:42.858Z,91.00
2017-09-27T17:59:43.821Z,91.20
2017-09-27T18:01:44.782Z,91.10
2017-09-27T18:03:45.869Z,91.20
2017-09-27T18:08:21.460Z,91.40
2017-09-27T18:10:39.325Z,91.50
2017-09-27T18:12:46.512Z,91.60
2017-09-27T18:14:53.220Z,91.80
2017-09-27T18:17:00.449Z,91.40
2017-09-27T18:19:01.557Z,91.30
2017-09-27T18:21:02.673Z,91.30
2017-09-27T18:23:04.557Z,91.40
2017-09-27T18:25:05.747Z,91.40
2017-09-27T18:27:06.717Z,91.30
2017-09-27T18:29:07.738Z,91.10
2017-09-27T18:31:08.818Z,91.10
2017-09-27T18:33:09.788Z,91.00
2017-09-27T18:35:11.490Z,91.00
2017-09-27T18:37:12.462Z,91.00
2017-09-27T18:39:13.493Z,91.10
2017-09-27T18:41:14.447Z,91.30
2017-09-27T18:43:15.427Z,91.50
2017-09-27T18:45:17.158Z,91.60
2017-09-27T18:47:18.161Z,91.60
2017-09-27T18:49:19.157Z,91.40
2017-09-27T18:51:20.230Z,91.40
2017-09-27T18:53:21.939Z,92.00
2017-09-27T18:55:22.918Z,91.50
2017-09-27T18:57:23.893Z,91.80
2017-09-27T18:59:25.706Z,91.30
2017-09-27T19:01:34.736Z,91.30
2017-09-27T19:03:35.711Z,91.30
2017-09-27T19:05:36.712Z,91.10
2017-09-27T19:07:37.757Z,91.30
2017-09-27T19:09:38.717Z,91.30
2017-09-27T19:11:39.692Z,91.10
2017-09-27T19:13:40.638Z,90.90
2017-09-27T19:15:42.349Z,91.30
2017-09-27T19:17:44.069Z,91.50
2017-09-27T19:19:45.035Z,91.50
2017-09-27T19:21:45.986Z,91.70
2017-09-27T19:23:46.977Z,91.50
2017-09-27T19:25:47.933Z,91.50
2017-09-27T19:27:48.914Z,91.30
2017-09-27T19:29:49.877Z,91.40
2017-09-27T19:31:51.645Z,91.50
2017-09-27T19:33:53.333Z,91.50
2017-09-27T19:35:54.308Z,91.50
2017-09-27T19:37:55.293Z,91.50
2017-09-27T19:39:56.350Z,92.00
2017-09-27T19:41:58.074Z,92.40
2017-09-27T19:43:59.035Z,92.40
2017-09-27T19:45:59.997Z,92.30
2017-09-27T19:48:01.694Z,92.40
2017-09-27T19:50:02.753Z,92.40
2017-09-27T19:52:03.816Z,92.40
2017-09-27T19:54:04.792Z,92.40
2017-09-27T19:56:05.754Z,92.40
2017-09-27T19:58:06.717Z,92.40
2017-09-27T20:00:07.738Z,92.40
2017-09-27T20:02:09.686Z,92.40
2017-09-27T20:04:10.660Z,92.20
2017-09-27T20:06:11.726Z,91.70
2017-09-27T20:08:13.549Z,91.20
2017-09-27T20:10:14.509Z,91.20
2017-09-27T20:12:15.484Z,91.20
2017-09-27T20:14:16.441Z,91.40
2017-09-27T20:16:17.416Z,91.50
2017-09-27T20:18:18.369Z,91.60
2017-09-27T20:20:19.334Z,91.30
2017-09-27T20:22:20.422Z,91.10
2017-09-27T20:24:21.453Z,91.10
2017-09-27T20:26:23.188Z,91.70
2017-09-27T20:28:24.267Z,91.70
2017-09-27T20:30:25.978Z,91.80
2017-09-27T20:32:26.948Z,91.70
2017-09-27T20:34:27.921Z,91.70
2017-09-27T20:36:30.570Z,91.70
2017-09-27T20:38:31.605Z,91.70
2017-09-27T20:40:32.581Z,91.20
2017-09-27T20:42:33.657Z,91.00
2017-09-27T20:44:35.361Z,90.80
2017-09-27T20:46:36.408Z,90.80
2017-09-27T20:48:38.237Z,91.20
2017-09-27T20:50:39.947Z,90.60
2017-09-27T20:52:40.946Z,90.50
2017-09-27T20:54:42.711Z,90.10
2017-09-27T20:56:44.484Z,90.10
2017-09-27T20:58:45.470Z,90.10
2017-09-27T21:00:46.422Z,89.90
2017-09-27T21:02:48.229Z,89.30
2017-09-27T21:04:49.934Z,88.70
2017-09-27T21:06:50.890Z,88.60
2017-09-27T21:08:51.862Z,88.30
2017-09-27T21:10:52.828Z,87.80
2017-09-27T21:12:54.534Z,89.10
2017-09-27T21:14:56.326Z,90.00
2017-09-27T21:16:57.277Z,90.00
2017-09-27T21:18:58.327Z,90.30
2017-09-27T21:20:59.286Z,89.60
2017-09-27T21:23:00.254Z,87.20
2017-09-27T21:25:01.214Z,87.80
2017-09-27T21:27:02.171Z,88.10
2017-09-27T21:29:03.147Z,87.50
2017-09-27T21:31:04.106Z,87.50
2017-09-27T21:33:05.077Z,88.80
2017-09-27T21:35:07.005Z,89.60
2017-09-27T21:37:07.993Z,89.60
2017-09-27T21:39:08.968Z,90.10
2017-09-27T21:41:10.048Z,90.60
2017-09-27T21:43:11.024Z,91.10
2017-09-27T21:45:12.734Z,91.20
2017-09-27T21:47:13.697Z,91.20
2017-09-27T21:49:14.767Z,91.00
2017-09-27T21:51:15.777Z,90.80
2017-09-27T21:53:16.753Z,89.90
2017-09-27T21:55:17.710Z,88.80
2017-09-27T21:57:18.662Z,87.80
2017-09-27T21:59:20.368Z,85.90
2017-09-27T22:01:21.325Z,85.90
2017-09-27T22:03:29.247Z,85.80
2017-09-27T22:05:30.205Z,85.10
2017-09-27T22:07:31.164Z,86.40
2017-09-27T22:09:32.133Z,86.90
2017-09-27T22:11:33.093Z,88.30
2017-09-27T22:13:34.206Z,88.50
2017-09-27T22:15:35.163Z,88.50
2017-09-27T22:17:36.861Z,89.20
2017-09-27T22:19:37.912Z,89.20
2017-09-27T22:21:38.919Z,88.50
2017-09-27T22:23:40.645Z,87.60
2017-09-27T22:25:41.610Z,87.60
2017-09-27T22:27:42.654Z,87.70
2017-09-27T22:29:43.639Z,87.90
2017-09-27T22:31:44.598Z,89.20
2017-09-27T22:33:45.546Z,90.10
2017-09-27T22:35:46.520Z,88.20
2017-09-27T22:37:47.474Z,88.10
2017-09-27T22:39:48.441Z,87.40
2017-09-27T22:41:49.530Z,87.60
2017-09-27T22:43:50.512Z,87.80
2017-09-27T22:45:51.488Z,88.10
2017-09-27T22:47:52.432Z,89.10
2017-09-27T22:49:53.424Z,89.10
2017-09-27T22:51:54.401Z,90.00
2017-09-27T22:53:55.350Z,90.10
2017-09-27T22:55:56.336Z,90.50
2017-09-27T22:57:58.051Z,91.00
2017-09-27T22:59:59.030Z,91.00
2017-09-27T23:02:00.725Z,90.90
2017-09-27T23:04:01.679Z,90.90
2017-09-27T23:06:02.661Z,91.10
2017-09-27T23:08:03.623Z,91.20
2017-09-27T23:10:04.594Z,91.40
2017-09-27T23:12:06.317Z,91.10
2017-09-27T23:14:07.274Z,91.10
2017-09-27T23:16:08.239Z,91.00
2017-09-27T23:18:09.924Z,90.80
2017-09-27T23:20:10.894Z,90.80
2017-09-27T23:22:11.850Z,90.60
2017-09-27T23:24:13.550Z,90.70
2017-09-27T23:26:15.253Z,90.70
2017-09-27T23:28:16.204Z,90.60
2017-09-27T23:30:17.152Z,90.70
2017-09-27T23:32:18.118Z,90.90
2017-09-27T23:34:19.081Z,91.00
2017-09-27T23:36:20.068Z,91.10
2017-09-27T23:38:21.027Z,91.00
2017-09-27T23:40:21.989Z,91.10
2017-09-27T23:42:22.958Z,91.10
2017-09-27T23:44:23.933Z,91.50
2017-09-27T23:46:25.652Z,92.30
2017-09-27T23:48:26.609Z,92.30
2017-09-27T23:50:27.575Z,93.10
2017-09-27T23:52:28.532Z,93.20
2017-09-27T23:54:30.225Z,93.50
2017-09-27T23:56:31.189Z,93.50
2017-09-27T23:58:32.146Z,93.60
